createdAt,value
2022-09-18T00:00:53.198Z,0.00
2022-09-18T00:01:53.215Z,0.00
2022-09-18T00:02:53.199Z,0.00
2022-09-18T00:03:53.153Z,0.00
2022-09-18T00:04:53.144Z,0.00
2022-09-18T00:05:53.166Z,0.00
2022-09-18T00:06:53.119Z,0.00
2022-09-18T00:07:53.117Z,0.00
2022-09-18T00:08:53.103Z,0.00
2022-09-18T00:09:53.102Z,0.00
2022-09-18T00:10:53.124Z,0.00
2022-09-18T00:11:53.163Z,0.00
2022-09-18T00:12:53.066Z,0.00
2022-09-18T00:13:53.052Z,0.00
2022-09-18T00:14:53.045Z,0.00
2022-09-18T00:15:53.093Z,0.00
2022-09-18T00:16:53.044Z,0.00
2022-09-18T00:17:53.017Z,0.00
2022-09-18T00:18:53.011Z,0.00
2022-09-18T00:19:52.999Z,0.00
2022-09-18T00:20:52.989Z,0.00
2022-09-18T00:21:52.986Z,0.00
2022-09-18T00:22:52.966Z,0.00
2022-09-18T00:23:52.961Z,0.00
2022-09-18T00:24:52.942Z,0.00
2022-09-18T00:25:52.931Z,0.00
2022-09-18T00:26:52.940Z,0.00
2022-09-18T00:27:53.005Z,0.00
2022-09-18T00:28:52.897Z,0.00
2022-09-18T00:29:53.896Z,0.00
2022-09-18T00:30:52.932Z,0.00
2022-09-18T00:31:52.971Z,0.00
2022-09-18T00:32:52.868Z,0.00
2022-09-18T00:33:52.856Z,0.00
2022-09-18T00:34:52.846Z,0.00
2022-09-18T00:35:52.833Z,0.00
2022-09-18T00:36:52.873Z,0.00
2022-09-18T00:37:52.819Z,0.00
2022-09-18T00:38:52.805Z,0.00
2022-09-18T00:39:52.803Z,0.00
2022-09-18T00:40:52.787Z,0.00
2022-09-18T00:41:52.802Z,0.00
2022-09-18T00:42:52.764Z,0.00
2022-09-18T00:43:52.839Z,0.00
2022-09-18T00:44:52.743Z,0.00
2022-09-18T00:45:52.725Z,0.00
2022-09-18T00:46:52.797Z,0.00
2022-09-18T00:47:52.729Z,0.00
2022-09-18T00:48:52.698Z,0.00
2022-09-18T00:49:52.690Z,0.00
2022-09-18T00:50:52.677Z,0.00
2022-09-18T00:51:52.669Z,0.00
2022-09-18T00:52:52.674Z,0.00
2022-09-18T00:53:52.646Z,0.00
2022-09-18T00:54:52.637Z,0.00
2022-09-18T00:55:52.626Z,0.00
2022-09-18T00:56:52.617Z,0.00
2022-09-18T00:57:52.635Z,0.00
2022-09-18T00:58:52.608Z,0.00
2022-09-18T00:59:52.663Z,0.00
2022-09-18T01:00:52.639Z,0.00
2022-09-18T01:01:52.630Z,0.00
2022-09-18T01:02:52.586Z,0.00
2022-09-18T01:03:52.549Z,0.00
2022-09-18T01:04:52.544Z,0.00
2022-09-18T01:05:52.526Z,0.00
2022-09-18T01:06:52.521Z,0.00
2022-09-18T01:07:52.507Z,0.00
2022-09-18T01:08:52.513Z,0.00
2022-09-18T01:09:52.486Z,0.00
2022-09-18T01:10:52.478Z,0.00
2022-09-18T01:11:52.469Z,0.00
2022-09-18T01:12:52.459Z,0.00
2022-09-18T01:13:52.464Z,0.00
2022-09-18T01:14:52.442Z,0.00
2022-09-18T01:15:52.621Z,0.00
2022-09-18T01:16:52.414Z,0.00
2022-09-18T01:17:52.406Z,0.00
2022-09-18T01:18:52.424Z,0.00
2022-09-18T01:19:52.385Z,0.00
2022-09-18T01:20:52.386Z,0.00
2022-09-18T01:21:52.368Z,0.00
2022-09-18T01:22:52.357Z,0.00
2022-09-18T01:23:52.393Z,0.00
2022-09-18T01:24:52.334Z,0.00
2022-09-18T01:25:52.331Z,0.00
2022-09-18T01:26:52.318Z,0.00
2022-09-18T01:27:52.305Z,0.00
2022-09-18T01:28:52.295Z,0.00
2022-09-18T01:29:52.302Z,0.00
2022-09-18T01:30:52.418Z,0.00
2022-09-18T01:31:52.347Z,0.00
2022-09-18T01:32:52.250Z,0.00
2022-09-18T01:33:52.244Z,0.00
2022-09-18T01:34:52.254Z,0.00
2022-09-18T01:35:52.228Z,0.00
2022-09-18T01:36:52.217Z,0.00
2022-09-18T01:37:52.207Z,0.00
2022-09-18T01:38:52.196Z,0.00
2022-09-18T01:39:52.232Z,0.00
2022-09-18T01:40:52.172Z,0.00
2022-09-18T01:41:52.166Z,0.00
2022-09-18T01:42:52.151Z,0.00
2022-09-18T01:43:52.146Z,0.00
2022-09-18T01:44:52.175Z,0.00
2022-09-18T01:45:52.124Z,0.00
2022-09-18T01:46:52.195Z,0.00
2022-09-18T01:47:52.183Z,0.00
2022-09-18T01:48:52.092Z,0.00
2022-09-18T01:49:52.092Z,0.00
2022-09-18T01:50:52.096Z,0.00
2022-09-18T01:51:52.066Z,0.00
2022-09-18T01:52:52.060Z,0.00
2022-09-18T01:53:52.046Z,0.00
2022-09-18T01:54:52.039Z,0.00
2022-09-18T01:55:52.043Z,0.00
2022-09-18T01:56:52.019Z,0.00
2022-09-18T01:57:52.010Z,0.00
2022-09-18T01:58:51.999Z,0.00
2022-09-18T01:59:51.989Z,0.00
2022-09-18T02:00:52.008Z,0.00
2022-09-18T02:01:52.094Z,0.00
2022-09-18T02:02:52.069Z,0.00
2022-09-18T02:03:52.034Z,0.00
2022-09-18T02:04:51.942Z,0.00
2022-09-18T02:05:51.962Z,0.00
2022-09-18T02:06:51.930Z,0.00
2022-09-18T02:07:51.912Z,0.00
2022-09-18T02:08:51.908Z,0.00
2022-09-18T02:09:51.896Z,0.00
2022-09-18T02:10:51.915Z,0.00
2022-09-18T02:11:51.894Z,0.00
2022-09-18T02:12:51.864Z,0.00
2022-09-18T02:13:51.854Z,0.00
2022-09-18T02:14:51.840Z,0.00
2022-09-18T02:15:51.877Z,0.00
2022-09-18T02:16:51.844Z,0.00
2022-09-18T02:17:51.814Z,0.00
2022-09-18T02:18:51.821Z,0.00
2022-09-18T02:19:51.879Z,0.00
2022-09-18T02:20:51.787Z,0.00
2022-09-18T02:21:51.792Z,0.00
2022-09-18T02:22:51.770Z,0.00
2022-09-18T02:23:51.759Z,0.00
2022-09-18T02:24:51.754Z,0.00
2022-09-18T02:25:51.741Z,0.00
2022-09-18T02:26:51.743Z,0.00
2022-09-18T02:27:51.719Z,0.00
2022-09-18T02:28:51.712Z,0.00
2022-09-18T02:29:51.703Z,0.00
2022-09-18T02:30:51.691Z,0.00
2022-09-18T02:31:51.735Z,0.00
2022-09-18T02:32:51.714Z,0.00
2022-09-18T02:33:51.660Z,0.00
2022-09-18T02:34:51.649Z,0.00
2022-09-18T02:35:51.719Z,0.00
2022-09-18T02:36:51.646Z,0.00
2022-09-18T02:37:51.614Z,0.00
2022-09-18T02:38:51.609Z,0.00
2022-09-18T02:39:51.623Z,0.00
2022-09-18T02:40:51.588Z,0.00
2022-09-18T02:41:51.594Z,0.00
2022-09-18T02:42:51.570Z,0.00
2022-09-18T02:43:51.562Z,0.00
2022-09-18T02:44:51.547Z,0.00
2022-09-18T02:45:51.538Z,0.00
2022-09-18T02:46:51.563Z,0.00
2022-09-18T02:47:51.519Z,0.00
2022-09-18T02:48:51.516Z,0.00
2022-09-18T02:49:51.494Z,0.00
2022-09-18T02:50:51.492Z,0.00
2022-09-18T02:51:51.572Z,0.00
2022-09-18T02:52:51.469Z,0.00
2022-09-18T02:53:51.465Z,0.00
2022-09-18T02:54:51.448Z,0.00
2022-09-18T02:55:51.439Z,0.00
2022-09-18T02:56:51.445Z,0.00
2022-09-18T02:57:51.423Z,0.00
2022-09-18T02:58:51.409Z,0.00
2022-09-18T02:59:51.400Z,0.00
2022-09-18T03:00:51.390Z,0.00
2022-09-18T03:01:51.518Z,0.00
2022-09-18T03:02:51.427Z,0.00
2022-09-18T03:03:51.360Z,0.00
2022-09-18T03:04:51.352Z,0.00
2022-09-18T03:05:51.330Z,0.00
2022-09-18T03:06:52.366Z,0.00
2022-09-18T03:07:51.399Z,0.00
2022-09-18T03:08:51.306Z,0.00
2022-09-18T03:09:51.300Z,0.00
2022-09-18T03:10:51.284Z,0.00
2022-09-18T03:11:51.288Z,0.00
2022-09-18T03:12:51.333Z,0.00
2022-09-18T03:13:51.257Z,0.00
2022-09-18T03:14:51.245Z,0.00
2022-09-18T03:15:51.291Z,0.00
2022-09-18T03:16:51.237Z,0.00
2022-09-18T03:17:51.233Z,0.00
2022-09-18T03:18:51.247Z,0.00
2022-09-18T03:19:58.381Z,0.00
2022-09-18T03:20:51.180Z,0.00
2022-09-18T03:21:51.197Z,0.00
2022-09-18T03:22:51.178Z,0.00
2022-09-18T03:23:51.233Z,0.00
2022-09-18T03:24:51.139Z,0.00
2022-09-18T03:25:51.129Z,0.00
2022-09-18T03:26:51.123Z,0.00
2022-09-18T03:27:51.130Z,0.00
2022-09-18T03:28:51.102Z,0.00
2022-09-18T03:29:51.096Z,0.00
2022-09-18T03:30:51.078Z,0.00
2022-09-18T03:31:51.109Z,0.00
2022-09-18T03:32:51.073Z,0.00
2022-09-18T03:33:51.171Z,0.00
2022-09-18T03:34:51.045Z,0.00
2022-09-18T03:35:51.051Z,0.00
2022-09-18T03:36:51.044Z,0.00
2022-09-18T03:37:51.062Z,0.00
2022-09-18T03:38:51.012Z,0.00
2022-09-18T03:39:51.078Z,0.00
2022-09-18T03:40:50.991Z,0.00
2022-09-18T03:41:50.978Z,0.00
2022-09-18T03:42:51.005Z,0.00
2022-09-18T03:43:50.961Z,0.00
2022-09-18T03:44:50.953Z,0.00
2022-09-18T03:45:50.946Z,0.00
2022-09-18T03:46:51.031Z,0.00
2022-09-18T03:47:50.922Z,0.00
2022-09-18T03:48:51.009Z,0.00
2022-09-18T03:49:50.907Z,0.00
2022-09-18T03:50:50.899Z,0.00
2022-09-18T03:51:50.887Z,0.00
2022-09-18T03:52:51.716Z,0.00
2022-09-18T03:53:51.881Z,0.00
2022-09-18T03:54:50.857Z,0.00
2022-09-18T03:55:50.931Z,0.00
2022-09-18T03:56:50.838Z,0.00
2022-09-18T03:57:50.832Z,0.00
2022-09-18T03:58:50.857Z,0.00
2022-09-18T03:59:50.808Z,0.00
2022-09-18T04:00:50.800Z,0.00
2022-09-18T04:01:50.877Z,0.00
2022-09-18T04:02:50.892Z,0.00
2022-09-18T04:03:50.849Z,0.00
2022-09-18T04:04:50.785Z,0.00
2022-09-18T04:05:50.789Z,0.00
2022-09-18T04:06:50.748Z,0.00
2022-09-18T04:07:50.799Z,0.00
2022-09-18T04:08:50.748Z,0.00
2022-09-18T04:09:50.750Z,0.00
2022-09-18T04:10:50.713Z,0.00
2022-09-18T04:11:50.780Z,0.00
2022-09-18T04:12:50.691Z,0.00
2022-09-18T04:13:50.677Z,0.00
2022-09-18T04:14:50.682Z,0.00
2022-09-18T04:15:50.707Z,0.00
2022-09-18T04:16:50.643Z,0.00
2022-09-18T04:17:50.637Z,0.00
2022-09-18T04:18:50.640Z,0.00
2022-09-18T04:19:53.562Z,0.00
2022-09-18T04:20:51.609Z,0.00
2022-09-18T04:21:50.593Z,0.00
2022-09-18T04:22:50.592Z,0.00
2022-09-18T04:23:50.575Z,0.00
2022-09-18T04:24:50.674Z,0.00
2022-09-18T04:25:50.557Z,0.00
2022-09-18T04:26:50.547Z,0.00
2022-09-18T04:27:50.621Z,0.00
2022-09-18T04:28:50.526Z,0.00
2022-09-18T04:29:50.522Z,0.00
2022-09-18T04:30:50.527Z,0.00
2022-09-18T04:31:50.540Z,0.00
2022-09-18T04:32:50.487Z,0.00
2022-09-18T04:33:50.605Z,0.00
2022-09-18T04:34:50.468Z,0.00
2022-09-18T04:35:50.473Z,0.00
2022-09-18T04:36:50.449Z,0.00
2022-09-18T04:37:50.439Z,0.00
2022-09-18T04:38:50.457Z,0.00
2022-09-18T04:39:50.415Z,0.00
2022-09-18T04:40:50.417Z,0.00
2022-09-18T04:41:51.396Z,0.00
2022-09-18T04:42:50.388Z,0.00
2022-09-18T04:43:50.462Z,0.00
2022-09-18T04:44:50.366Z,0.00
2022-09-18T04:45:50.398Z,0.00
2022-09-18T04:46:50.423Z,0.00
2022-09-18T04:47:50.354Z,0.00
2022-09-18T04:48:50.408Z,0.00
2022-09-18T04:49:50.321Z,0.00
2022-09-18T04:50:50.341Z,0.00
2022-09-18T04:51:50.291Z,0.00
2022-09-18T04:52:50.280Z,0.00
2022-09-18T04:53:50.272Z,0.00
2022-09-18T04:54:50.257Z,0.00
2022-09-18T04:55:50.251Z,0.00
2022-09-18T04:56:50.267Z,0.00
2022-09-18T04:57:54.401Z,0.00
2022-09-18T04:58:51.221Z,0.00
2022-09-18T04:59:50.295Z,0.00
2022-09-18T05:00:50.272Z,0.00
2022-09-18T05:01:50.263Z,0.00
2022-09-18T05:02:50.180Z,0.00
2022-09-18T05:03:50.169Z,5.62
2022-09-18T05:04:50.163Z,0.00
2022-09-18T05:05:50.153Z,5.62
2022-09-18T05:06:50.184Z,5.62
2022-09-18T05:07:50.133Z,5.62
2022-09-18T05:08:50.121Z,5.62
2022-09-18T05:09:50.114Z,5.62
2022-09-18T05:10:50.103Z,5.62
2022-09-18T05:11:50.117Z,5.62
2022-09-18T05:12:50.082Z,5.62
2022-09-18T05:13:50.071Z,0.00
2022-09-18T05:14:50.058Z,5.62
2022-09-18T05:15:50.178Z,5.62
2022-09-18T05:16:50.047Z,5.62
2022-09-18T05:17:50.051Z,5.62
2022-09-18T05:18:50.049Z,5.62
2022-09-18T05:19:50.015Z,5.62
2022-09-18T05:20:50.002Z,5.62
2022-09-18T05:21:49.986Z,5.62
2022-09-18T05:22:49.997Z,5.62
2022-09-18T05:23:49.970Z,5.62
2022-09-18T05:24:49.958Z,5.62
2022-09-18T05:25:49.948Z,5.62
2022-09-18T05:26:49.942Z,0.00
2022-09-18T05:27:49.945Z,0.00
2022-09-18T05:28:49.916Z,0.00
2022-09-18T05:29:49.909Z,0.00
2022-09-18T05:30:49.904Z,5.62
2022-09-18T05:31:50.082Z,5.62
2022-09-18T05:32:49.916Z,5.62
2022-09-18T05:33:49.879Z,5.62
2022-09-18T05:34:49.857Z,5.62
2022-09-18T05:35:49.846Z,5.62
2022-09-18T05:36:49.847Z,5.62
2022-09-18T05:37:49.856Z,11.25
2022-09-18T05:38:49.818Z,11.25
2022-09-18T05:39:49.809Z,11.25
2022-09-18T05:40:49.796Z,11.25
2022-09-18T05:41:49.790Z,16.88
2022-09-18T05:42:49.779Z,16.88
2022-09-18T05:43:49.784Z,16.88
2022-09-18T05:44:49.760Z,11.25
2022-09-18T05:45:49.750Z,11.25
2022-09-18T05:46:49.776Z,5.62
2022-09-18T05:47:49.804Z,5.62
2022-09-18T05:48:49.732Z,11.25
2022-09-18T05:49:49.706Z,11.25
2022-09-18T05:50:49.695Z,5.62
2022-09-18T05:51:49.685Z,5.62
2022-09-18T05:52:49.677Z,5.62
2022-09-18T05:53:49.681Z,5.62
2022-09-18T05:54:49.658Z,5.62
2022-09-18T05:55:49.644Z,5.62
2022-09-18T05:56:49.633Z,5.62
2022-09-18T05:57:49.624Z,11.25
2022-09-18T05:58:49.636Z,11.25
2022-09-18T05:59:49.603Z,16.88
2022-09-18T06:00:49.608Z,16.88
2022-09-18T06:01:49.629Z,16.88
2022-09-18T06:02:49.648Z,16.88
2022-09-18T06:03:49.659Z,11.25
2022-09-18T06:04:49.557Z,11.25
2022-09-18T06:05:49.553Z,11.25
2022-09-18T06:06:49.540Z,11.25
2022-09-18T06:07:49.530Z,5.62
2022-09-18T06:08:49.553Z,11.25
2022-09-18T06:09:49.513Z,11.25
2022-09-18T06:10:49.501Z,11.25
2022-09-18T06:11:49.491Z,16.88
2022-09-18T06:12:49.482Z,16.88
2022-09-18T06:13:49.515Z,16.88
2022-09-18T06:14:49.461Z,22.50
2022-09-18T06:15:49.506Z,28.12
2022-09-18T06:16:49.502Z,28.12
2022-09-18T06:17:49.429Z,28.12
2022-09-18T06:18:49.508Z,28.12
2022-09-18T06:19:49.505Z,28.12
2022-09-18T06:20:49.400Z,28.12
2022-09-18T06:21:49.387Z,33.75
2022-09-18T06:22:49.380Z,39.38
2022-09-18T06:23:49.372Z,50.62
2022-09-18T06:24:49.379Z,50.62
2022-09-18T06:25:49.349Z,50.62
2022-09-18T06:26:49.331Z,50.62
2022-09-18T06:27:49.327Z,50.62
2022-09-18T06:28:49.320Z,56.25
2022-09-18T06:29:49.336Z,56.25
2022-09-18T06:30:49.300Z,56.25
2022-09-18T06:31:49.317Z,56.25
2022-09-18T06:32:49.273Z,56.25
2022-09-18T06:33:49.343Z,56.25
2022-09-18T06:34:49.293Z,61.88
2022-09-18T06:35:49.353Z,61.88
2022-09-18T06:36:49.231Z,61.88
2022-09-18T06:37:49.221Z,61.88
2022-09-18T06:38:49.210Z,61.88
2022-09-18T06:39:49.200Z,61.88
2022-09-18T06:40:49.206Z,67.50
2022-09-18T06:41:49.180Z,67.50
2022-09-18T06:42:49.169Z,67.50
2022-09-18T06:43:49.162Z,67.50
2022-09-18T06:44:49.149Z,73.12
2022-09-18T06:45:49.163Z,73.12
2022-09-18T06:46:49.265Z,73.12
2022-09-18T06:47:49.122Z,78.75
2022-09-18T06:48:49.148Z,78.75
2022-09-18T06:49:49.099Z,78.75
2022-09-18T06:50:49.134Z,73.12
2022-09-18T06:51:49.158Z,67.50
2022-09-18T06:52:49.071Z,78.75
2022-09-18T06:53:49.059Z,84.38
2022-09-18T06:54:49.050Z,84.38
2022-09-18T06:55:49.125Z,84.38
2022-09-18T06:56:49.027Z,84.38
2022-09-18T06:57:49.023Z,78.75
2022-09-18T06:58:49.008Z,67.50
2022-09-18T06:59:49.010Z,61.88
2022-09-18T07:00:50.113Z,56.25
2022-09-18T07:01:49.032Z,56.25
2022-09-18T07:02:48.969Z,56.25
2022-09-18T07:03:48.998Z,56.25
2022-09-18T07:04:48.944Z,61.88
2022-09-18T07:05:48.938Z,73.12
2022-09-18T07:06:48.949Z,84.38
2022-09-18T07:07:48.995Z,90.00
2022-09-18T07:08:48.903Z,95.62
2022-09-18T07:09:48.896Z,95.62
2022-09-18T07:10:48.882Z,95.62
2022-09-18T07:11:48.889Z,101.25
2022-09-18T07:12:48.872Z,106.88
2022-09-18T07:13:48.851Z,101.25
2022-09-18T07:14:48.900Z,106.88
2022-09-18T07:15:48.884Z,106.88
2022-09-18T07:16:48.843Z,106.88
2022-09-18T07:17:48.813Z,112.50
2022-09-18T07:18:48.868Z,118.12
2022-09-18T07:19:48.794Z,118.12
2022-09-18T07:20:48.785Z,118.12
2022-09-18T07:21:48.795Z,112.50
2022-09-18T07:22:48.774Z,112.50
2022-09-18T07:23:49.837Z,112.50
2022-09-18T07:24:48.749Z,112.50
2022-09-18T07:25:48.725Z,112.50
2022-09-18T07:26:48.756Z,101.25
2022-09-18T07:27:48.714Z,95.62
2022-09-18T07:28:48.701Z,95.62
2022-09-18T07:29:48.693Z,95.62
2022-09-18T07:30:48.686Z,101.25
2022-09-18T07:31:48.764Z,106.88
2022-09-18T07:32:48.663Z,112.50
2022-09-18T07:33:48.690Z,106.88
2022-09-18T07:34:48.647Z,101.25
2022-09-18T07:35:48.631Z,101.25
2022-09-18T07:36:48.620Z,112.50
2022-09-18T07:37:48.626Z,118.12
2022-09-18T07:38:48.601Z,129.38
2022-09-18T07:39:48.682Z,129.38
2022-09-18T07:40:48.591Z,135.00
2022-09-18T07:41:48.569Z,140.62
2022-09-18T07:42:48.582Z,135.00
2022-09-18T07:43:48.552Z,140.62
2022-09-18T07:44:48.539Z,146.25
2022-09-18T07:45:48.529Z,146.25
2022-09-18T07:46:48.588Z,151.88
2022-09-18T07:47:48.556Z,151.88
2022-09-18T07:48:48.567Z,151.88
2022-09-18T07:49:48.492Z,146.25
2022-09-18T07:50:48.478Z,135.00
2022-09-18T07:51:48.485Z,140.62
2022-09-18T07:52:48.484Z,140.62
2022-09-18T07:53:48.448Z,129.38
2022-09-18T07:54:48.435Z,118.12
2022-09-18T07:55:48.511Z,106.88
2022-09-18T07:56:48.418Z,106.88
2022-09-18T07:57:48.408Z,106.88
2022-09-18T07:58:48.409Z,112.50
2022-09-18T07:59:48.386Z,129.38
2022-09-18T08:00:48.375Z,106.88
2022-09-18T08:01:48.509Z,95.62
2022-09-18T08:02:48.436Z,90.00
2022-09-18T08:03:48.358Z,61.88
2022-09-18T08:04:48.337Z,61.88
2022-09-18T08:05:48.323Z,56.25
2022-09-18T08:06:48.312Z,50.62
2022-09-18T08:07:48.303Z,56.25
2022-09-18T08:08:50.782Z,67.50
2022-09-18T08:09:50.284Z,73.12
2022-09-18T08:10:48.279Z,56.25
2022-09-18T08:11:48.352Z,50.62
2022-09-18T08:12:48.253Z,56.25
2022-09-18T08:13:48.262Z,56.25
2022-09-18T08:14:48.234Z,56.25
2022-09-18T08:15:48.266Z,61.88
2022-09-18T08:16:48.219Z,56.25
2022-09-18T08:17:48.198Z,67.50
2022-09-18T08:18:48.208Z,78.75
2022-09-18T08:19:48.183Z,95.62
2022-09-18T08:20:48.180Z,101.25
2022-09-18T08:21:48.162Z,123.75
2022-09-18T08:22:48.151Z,146.25
2022-09-18T08:23:48.179Z,163.12
2022-09-18T08:24:48.132Z,168.75
2022-09-18T08:25:48.126Z,168.75
2022-09-18T08:26:48.110Z,180.00
2022-09-18T08:27:48.191Z,191.25
2022-09-18T08:28:48.138Z,180.00
2022-09-18T08:29:48.078Z,163.12
2022-09-18T08:30:48.070Z,168.75
2022-09-18T08:31:48.122Z,180.00
2022-09-18T08:32:48.051Z,191.25
2022-09-18T08:33:48.097Z,202.50
2022-09-18T08:34:48.046Z,213.75
2022-09-18T08:35:48.022Z,219.38
2022-09-18T08:36:48.008Z,225.00
2022-09-18T08:37:48.006Z,225.00
2022-09-18T08:38:47.987Z,225.00
2022-09-18T08:39:47.986Z,219.38
2022-09-18T08:40:47.979Z,213.75
2022-09-18T08:41:47.959Z,202.50
2022-09-18T08:42:47.970Z,196.88
2022-09-18T08:43:48.016Z,196.88
2022-09-18T08:44:47.941Z,202.50
2022-09-18T08:45:47.911Z,191.25
2022-09-18T08:46:47.936Z,180.00
2022-09-18T08:47:47.892Z,180.00
2022-09-18T08:48:47.884Z,185.62
2022-09-18T08:49:47.888Z,174.38
2022-09-18T08:50:47.864Z,180.00
2022-09-18T08:51:47.852Z,185.62
2022-09-18T08:52:47.852Z,180.00
2022-09-18T08:53:47.833Z,191.25
2022-09-18T08:54:47.846Z,191.25
2022-09-18T08:55:47.815Z,191.25
2022-09-18T08:56:47.808Z,180.00
2022-09-18T08:57:47.799Z,196.88
2022-09-18T08:58:47.776Z,219.38
2022-09-18T08:59:48.878Z,247.50
2022-09-18T09:00:47.830Z,264.38
2022-09-18T09:01:47.772Z,281.25
2022-09-18T09:02:47.744Z,264.38
2022-09-18T09:03:47.731Z,241.88
2022-09-18T09:04:47.765Z,230.62
2022-09-18T09:05:47.710Z,213.75
2022-09-18T09:06:47.703Z,202.50
2022-09-18T09:07:47.692Z,180.00
2022-09-18T09:08:47.680Z,146.25
2022-09-18T09:09:47.710Z,157.50
2022-09-18T09:10:47.658Z,185.62
2022-09-18T09:11:47.650Z,174.38
2022-09-18T09:12:47.637Z,180.00
2022-09-18T09:13:47.633Z,174.38
2022-09-18T09:14:57.291Z,157.50
2022-09-18T09:15:49.757Z,168.75
2022-09-18T09:16:47.600Z,163.12
2022-09-18T09:17:47.586Z,185.62
2022-09-18T09:18:47.576Z,174.38
2022-09-18T09:19:47.564Z,151.88
2022-09-18T09:20:47.576Z,106.88
2022-09-18T09:21:47.547Z,118.12
2022-09-18T09:22:47.537Z,95.62
2022-09-18T09:23:47.531Z,84.38
2022-09-18T09:24:47.516Z,84.38
2022-09-18T09:25:47.548Z,84.38
2022-09-18T09:26:47.497Z,112.50
2022-09-18T09:27:47.492Z,135.00
2022-09-18T09:28:47.477Z,129.38
2022-09-18T09:29:47.466Z,135.00
2022-09-18T09:30:47.485Z,129.38
2022-09-18T09:31:47.551Z,135.00
2022-09-18T09:32:47.442Z,140.62
2022-09-18T09:33:47.436Z,168.75
2022-09-18T09:34:47.409Z,196.88
2022-09-18T09:35:47.402Z,241.88
2022-09-18T09:36:47.405Z,270.00
2022-09-18T09:37:47.380Z,275.62
2022-09-18T09:38:47.373Z,258.75
2022-09-18T09:39:47.363Z,225.00
2022-09-18T09:40:47.349Z,236.25
2022-09-18T09:41:47.356Z,247.50
2022-09-18T09:42:47.328Z,247.50
2022-09-18T09:43:47.324Z,213.75
2022-09-18T09:44:47.323Z,202.50
2022-09-18T09:45:47.295Z,208.12
2022-09-18T09:46:47.401Z,225.00
2022-09-18T09:47:47.383Z,208.12
2022-09-18T09:48:47.272Z,191.25
2022-09-18T09:49:47.255Z,174.38
2022-09-18T09:50:47.246Z,151.88
2022-09-18T09:51:47.273Z,129.38
2022-09-18T09:52:47.224Z,140.62
2022-09-18T09:53:47.215Z,168.75
2022-09-18T09:54:47.203Z,146.25
2022-09-18T09:55:47.195Z,140.62
2022-09-18T09:56:47.185Z,157.50
2022-09-18T09:57:47.182Z,151.88
2022-09-18T09:58:47.155Z,146.25
2022-09-18T09:59:47.145Z,140.62
2022-09-18T10:00:47.179Z,140.62
2022-09-18T10:01:47.161Z,151.88
2022-09-18T10:02:47.134Z,157.50
2022-09-18T10:03:47.187Z,168.75
2022-09-18T10:04:47.123Z,168.75
2022-09-18T10:05:51.647Z,163.12
2022-09-18T10:06:49.075Z,157.50
2022-09-18T10:07:47.108Z,140.62
2022-09-18T10:08:47.083Z,118.12
2022-09-18T10:09:47.052Z,101.25
2022-09-18T10:10:47.037Z,90.00
2022-09-18T10:11:47.028Z,90.00
2022-09-18T10:12:47.046Z,90.00
2022-09-18T10:13:47.007Z,95.62
2022-09-18T10:14:46.999Z,78.75
2022-09-18T10:15:47.130Z,78.75
2022-09-18T10:16:46.977Z,101.25
2022-09-18T10:17:46.975Z,129.38
2022-09-18T10:18:46.971Z,123.75
2022-09-18T10:19:47.032Z,112.50
2022-09-18T10:20:46.943Z,118.12
2022-09-18T10:21:46.925Z,135.00
2022-09-18T10:22:46.922Z,146.25
2022-09-18T10:23:46.956Z,151.88
2022-09-18T10:24:46.906Z,157.50
2022-09-18T10:25:46.891Z,168.75
2022-09-18T10:26:46.880Z,163.12
2022-09-18T10:27:46.871Z,163.12
2022-09-18T10:28:46.888Z,157.50
2022-09-18T10:29:46.846Z,157.50
2022-09-18T10:30:46.845Z,157.50
2022-09-18T10:31:46.938Z,157.50
2022-09-18T10:32:46.818Z,163.12
2022-09-18T10:33:46.807Z,168.75
2022-09-18T10:34:46.813Z,174.38
2022-09-18T10:35:46.872Z,185.62
2022-09-18T10:36:46.775Z,196.88
2022-09-18T10:37:46.764Z,196.88
2022-09-18T10:38:46.756Z,196.88
2022-09-18T10:39:46.793Z,196.88
2022-09-18T10:40:46.738Z,196.88
2022-09-18T10:41:46.722Z,196.88
2022-09-18T10:42:46.716Z,196.88
2022-09-18T10:43:46.707Z,196.88
2022-09-18T10:44:46.724Z,196.88
2022-09-18T10:45:46.681Z,185.62
2022-09-18T10:46:46.724Z,174.38
2022-09-18T10:47:46.668Z,168.75
2022-09-18T10:48:46.652Z,168.75
2022-09-18T10:49:46.640Z,163.12
2022-09-18T10:50:46.646Z,151.88
2022-09-18T10:51:46.696Z,140.62
2022-09-18T10:52:46.606Z,129.38
2022-09-18T10:53:46.597Z,123.75
2022-09-18T10:54:46.585Z,163.12
2022-09-18T10:55:46.594Z,168.75
2022-09-18T10:56:46.569Z,168.75
2022-09-18T10:57:46.560Z,168.75
2022-09-18T10:58:46.545Z,168.75
2022-09-18T10:59:46.551Z,168.75
2022-09-18T11:00:46.646Z,168.75
2022-09-18T11:01:46.542Z,168.75
2022-09-18T11:02:46.506Z,174.38
2022-09-18T11:03:46.490Z,174.38
2022-09-18T11:04:46.484Z,180.00
2022-09-18T11:05:46.500Z,185.62
2022-09-18T11:06:46.470Z,185.62
2022-09-18T11:07:46.530Z,180.00
2022-09-18T11:08:46.476Z,185.62
2022-09-18T11:09:46.431Z,196.88
2022-09-18T11:10:46.423Z,202.50
2022-09-18T11:11:46.429Z,219.38
2022-09-18T11:12:46.406Z,219.38
2022-09-18T11:13:46.393Z,213.75
2022-09-18T11:14:46.382Z,230.62
2022-09-18T11:15:46.379Z,230.62
2022-09-18T11:16:46.450Z,213.75
2022-09-18T11:17:46.352Z,236.25
2022-09-18T11:18:46.347Z,230.62
2022-09-18T11:19:46.334Z,219.38
2022-09-18T11:20:46.321Z,208.12
2022-09-18T11:21:46.329Z,202.50
2022-09-18T11:22:46.297Z,196.88
2022-09-18T11:23:46.370Z,180.00
2022-09-18T11:24:47.495Z,180.00
2022-09-18T11:25:47.274Z,180.00
2022-09-18T11:26:46.299Z,185.62
2022-09-18T11:27:46.248Z,185.62
2022-09-18T11:28:46.237Z,168.75
2022-09-18T11:29:46.229Z,180.00
2022-09-18T11:30:46.217Z,168.75
2022-09-18T11:31:46.326Z,174.38
2022-09-18T11:32:46.196Z,191.25
2022-09-18T11:33:46.186Z,202.50
2022-09-18T11:34:46.177Z,202.50
2022-09-18T11:35:46.164Z,202.50
2022-09-18T11:36:46.152Z,202.50
2022-09-18T11:37:46.159Z,180.00
2022-09-18T11:38:46.135Z,157.50
2022-09-18T11:39:46.204Z,140.62
2022-09-18T11:40:46.157Z,118.12
2022-09-18T11:41:46.105Z,112.50
2022-09-18T11:42:46.133Z,112.50
2022-09-18T11:43:46.084Z,112.50
2022-09-18T11:44:46.073Z,101.25
2022-09-18T11:45:46.073Z,101.25
2022-09-18T11:46:46.296Z,95.62
2022-09-18T11:47:46.081Z,90.00
2022-09-18T11:48:46.030Z,84.38
2022-09-18T11:49:46.020Z,73.12
2022-09-18T11:50:46.016Z,67.50
2022-09-18T11:51:45.998Z,67.50
2022-09-18T11:52:45.990Z,67.50
2022-09-18T11:53:45.989Z,61.88
2022-09-18T11:54:45.977Z,56.25
2022-09-18T11:55:46.037Z,50.62
2022-09-18T11:56:45.945Z,45.00
2022-09-18T11:57:45.937Z,45.00
2022-09-18T11:58:45.938Z,45.00
2022-09-18T11:59:45.929Z,50.62
2022-09-18T12:00:45.911Z,56.25
2022-09-18T12:01:45.934Z,84.38
2022-09-18T12:02:46.014Z,146.25
2022-09-18T12:03:45.889Z,146.25
2022-09-18T12:04:45.859Z,118.12
2022-09-18T12:05:45.852Z,118.12
2022-09-18T12:06:45.846Z,112.50
2022-09-18T12:07:44.475Z,112.50
2022-09-18T12:08:44.476Z,118.12
2022-09-18T12:09:44.454Z,123.75
2022-09-18T12:10:44.463Z,123.75
2022-09-18T12:11:44.508Z,129.38
2022-09-18T12:12:44.417Z,135.00
2022-09-18T12:13:44.453Z,140.62
2022-09-18T12:14:44.395Z,140.62
2022-09-18T12:15:44.386Z,140.62
2022-09-18T12:16:46.036Z,146.25
2022-09-18T12:17:45.364Z,146.25
2022-09-18T12:18:44.381Z,146.25
2022-09-18T12:19:44.342Z,146.25
2022-09-18T12:20:44.334Z,146.25
2022-09-18T12:21:44.324Z,146.25
2022-09-18T12:22:44.306Z,146.25
2022-09-18T12:23:44.300Z,146.25
2022-09-18T12:24:44.300Z,140.62
2022-09-18T12:25:44.271Z,140.62
2022-09-18T12:26:44.260Z,135.00
2022-09-18T12:27:44.338Z,135.00
2022-09-18T12:28:44.234Z,129.38
2022-09-18T12:29:44.242Z,123.75
2022-09-18T12:30:44.213Z,118.12
2022-09-18T12:31:44.235Z,118.12
2022-09-18T12:32:44.192Z,112.50
2022-09-18T12:33:44.180Z,112.50
2022-09-18T12:34:44.188Z,106.88
2022-09-18T12:35:44.162Z,101.25
2022-09-18T12:36:44.148Z,90.00
2022-09-18T12:37:44.134Z,84.38
2022-09-18T12:38:44.802Z,90.00
2022-09-18T12:39:44.815Z,101.25
2022-09-18T12:40:44.776Z,101.25
2022-09-18T12:41:44.766Z,84.38
2022-09-18T12:42:44.769Z,73.12
2022-09-18T12:43:44.827Z,73.12
2022-09-18T12:44:44.749Z,90.00
2022-09-18T12:45:44.777Z,90.00
2022-09-18T12:46:44.717Z,95.62
2022-09-18T12:47:44.703Z,101.25
2022-09-18T12:48:44.692Z,106.88
2022-09-18T12:49:44.727Z,95.62
2022-09-18T12:50:44.675Z,95.62
2022-09-18T12:51:44.665Z,78.75
2022-09-18T12:53:00.562Z,106.88
2022-09-18T12:53:46.646Z,106.88
2022-09-18T12:54:44.665Z,106.88